VOCIVOCL

Guest
Details From VOCI - COCHIN INTL
To VOCL - CALICUT
Flight Number -
Tags decoded
Created
Modified
Stats Distance 65 nm / 120 km
Max Altitude 0 ft / 0 m
Waypoints 3
Social Downloads 3
Likes 0
Share VATSIM

Download

Looking for another format? Having issues loading an existing format? Contact us
Advertisement - Login to hide

Notes

Requested: VOCI CLC VOCL

Route

VOCI CLC VOCL

ID Type Via Altitude Latitude Longitude Leg Dist Tot Dist Heading (true) Name
O VOCI APT - 0 ft / 0 m 10.15200˚ 76.40191˚ - 0 nm - COCHIN INTL
CLC VOR - 0 ft / 0 m 11.13515˚ 75.95485˚ 64 nm 64 nm 336° / 336° CALICUT VOR-DME
O VOCL APT - 0 ft / 0 m 11.13684˚ 75.95530˚ 0 nm 64 nm 15° / 15° CALICUT

Altitude Profile

Advertisement - Login to hide

VOCI

Details ICAO VOCI (COK)
Name COCHIN INTL
Region India
Timezone Asia/Kolkata (UTC+5.5)
Stats Elevation 30 ft / 9 m (AMSL)
Location 10.151996° 76.401905°
Runways 1
Magnetic Variation 1.654° W

METAR

VOCI 150800Z 07006KT 5000 HZ FEW015 32/20 Q1010 NOSIG

Decode

TAF

TAF VOCI 150500Z 1506/1612 VRB05KT 4000 HZ FEW015 BECMG 1508/1509 22010KT 5000 HZ SCT015 FEW025CB BKN080 BECMG 1516/1517 00000KT 4000 HZ SCT015 TEMPO 1523/1603 2000 BR SCT008 SCT080 BECMG 1603/1604 VRB05KT 4000 HZ SCT015 SCT080 BECMG 1608/1609 25010KT 5000 HZ SCT015 FEW025CB SCT080

Decode

Departure Runways

ID Width Length Bearing (true) Bearing (mag) Surface Threshold Offset Overrun Length
09 148 ft / 45 m 11,139 ft / 3,395 m 87.86° 89.51° Asphalt 0 ft / 0 m 195 ft / 59 m
27 148 ft / 45 m 11,139 ft / 3,395 m 267.87° 269.52° Asphalt 0 ft / 0 m 195 ft / 59 m

VOCL

Details ICAO VOCL (CCJ)
Name CALICUT
Region India
Timezone Asia/Kolkata (UTC+5.5)
Stats Elevation 342 ft / 104 m (AMSL)
Location 11.136840° 75.955300°
Runways 1
Magnetic Variation 1.492° W

METAR

VOCL 150800Z 22003KT 7000 FEW015 32/22 Q1011 NOSIG

Decode

TAF

TAF VOCL 150500Z 1506/1612 09010KT 6000 BECMG 1508/1509 24010KT SCT015 TEMPO 1512/1516 00000KT 3000 TSRA RA SCT015 FEW025CB SCT080 BECMG 1516/1517 5000 HZ FEW015 SCT090 TEMPO 1523/1603 1000 MIFG FEW002 SCT015 BECMG 1603/1604 09005KT 4000 HZ FEW015 BECMG 1607/1608 24010KT 6000 SCT015 SCT090

Decode

Destination Runways

ID Width Length Bearing (true) Bearing (mag) Surface Threshold Offset Overrun Length
10 150 ft / 46 m 9,384 ft / 2,860 m 101.05° 102.54° Asphalt 0 ft / 0 m 190 ft / 58 m
28 150 ft / 46 m 9,384 ft / 2,860 m 281.06° 282.55° Asphalt 0 ft / 0 m 190 ft / 58 m

Approach Navaids

Runway Type Ident Frequency Range Bearing (true) Bearing (mag) Slope Elevation
28 Localiser ICAC 109.50 MHz 18 nm / 33 km 275.76° 277.25° - 311 ft / 95 m (AMSL)
28 Glidescope ICAC 109.50 MHz 10 nm / 19 km 281.06° 282.55° 3.20° 320 ft / 98 m (AMSL)
28 DME ICAC 109.50 MHz 18 nm / 33 km - - - 342 ft / 104 m (AMSL)

Popular Alternatives